Time;durP1;ratioP1;P1;durP2;ratioP2;P2;SDS_P1;SDS_P2;PMS_P1;PMS_P2;Temp;Humidity;BMP_temperature;BMP_pressure;BME280_temperature;BME280_humidity;BME280_pressure;Samples;Min_cycle;Max_cycle;Signal;HPM_P1;HPM_P2
2021/04/13 00:05:49;;;;;;;7.57;4.35;;;;;;;0.96;94.93;101585.44;20818503;28;20539;-70
2021/04/13 00:15:54;;;;;;;10.02;4.97;;;;;;;0.92;96.46;101585.41;20817852;28;20054;-70
2021/04/13 00:26:04;;;;;;;9.60;4.82;;;;;;;0.71;96.34;101588.78;20817425;28;20046;-70
2021/04/13 00:36:10;;;;;;;8.77;5.15;;;;;;;0.47;96.34;101594.63;20816095;28;20042;-70
2021/04/13 00:46:17;;;;;;;11.50;5.38;;;;;;;0.29;97.83;101594.53;20823383;28;20116;-70
2021/04/13 00:56:20;;;;;;;12.18;5.00;;;;;;;0.27;97.17;101591.06;20856480;28;20042;-70
2021/04/13 01:06:25;;;;;;;9.43;4.75;;;;;;;0.19;95.57;101588.47;20838773;28;20114;-70
2021/04/13 01:16:30;;;;;;;11.50;5.13;;;;;;;0.34;96.72;101592.84;20829521;28;20045;-70
2021/04/13 01:26:43;;;;;;;8.20;5.03;;;;;;;0.53;95.63;101593.81;20828491;28;20128;-70
2021/04/13 01:37:02;;;;;;;9.85;4.88;;;;;;;0.67;96.63;101593.03;20827943;28;20049;-70
2021/04/13 01:47:05;;;;;;;9.20;4.97;;;;;;;0.82;96.26;101592.25;20825973;28;20054;-70
2021/04/13 01:57:18;;;;;;;8.73;4.90;;;;;;;0.88;97.45;101607.72;20825343;28;20053;-70
2021/04/13 02:07:57;;;;;;;9.52;4.60;;;;;;;1.40;93.17;101615.66;20826258;28;20053;-70
2021/04/13 02:18:02;;;;;;;8.02;3.83;;;;;;;1.36;93.08;101619.97;20825215;28;20049;-70
2021/04/13 02:28:05;;;;;;;8.48;4.47;;;;;;;1.41;92.02;101620.84;20824200;28;20481;-69
2021/04/13 02:38:12;;;;;;;10.02;4.53;;;;;;;1.43;93.26;101629.41;20823587;28;20100;-70
2021/04/13 02:48:30;;;;;;;8.52;4.07;;;;;;;1.43;92.04;101629.41;20823060;28;20049;-70
2021/04/13 02:58:47;;;;;;;9.35;4.47;;;;;;;1.33;90.60;101638.00;20821566;28;20049;-70
2021/04/13 03:08:48;;;;;;;11.95;6.43;;;;;;;1.66;88.29;101638.09;20820622;28;20045;-70
2021/04/13 03:18:54;;;;;;;13.73;7.13;;;;;;;1.59;89.89;101646.66;20820651;28;20363;-69
2021/04/13 03:29:03;;;;;;;12.02;6.90;;;;;;;1.76;87.94;101649.28;20819958;28;20053;-69
2021/04/13 03:39:13;;;;;;;14.00;7.28;;;;;;;1.82;89.13;101661.34;20819730;28;20041;-70
2021/04/13 03:49:22;;;;;;;12.48;7.07;;;;;;;1.68;89.78;101657.00;20819056;28;20366;-70
2021/04/13 03:59:27;;;;;;;13.95;6.90;;;;;;;1.80;90.34;101670.78;20818718;28;20100;-69
2021/04/13 04:09:28;;;;;;;11.82;6.88;;;;;;;1.73;89.60;101677.66;20813732;28;20053;-70
2021/04/13 04:19:32;;;;;;;11.88;6.50;;;;;;;1.77;89.12;101681.13;20817502;28;20092;-69
2021/04/13 04:29:44;;;;;;;14.82;7.13;;;;;;;1.84;86.58;101670.81;20831888;28;20084;-70
2021/04/13 04:39:45;;;;;;;13.75;7.72;;;;;;;1.85;84.76;101679.41;20832689;28;20041;-69
2021/04/13 04:49:47;;;;;;;13.88;6.85;;;;;;;1.71;85.70;101672.50;20833837;28;20088;-71
2021/04/13 04:59:48;;;;;;;15.63;7.43;;;;;;;1.70;85.93;101686.28;20833357;28;20103;-70
2021/04/13 05:09:49;;;;;;;13.52;7.70;;;;;;;1.58;87.44;101695.69;20831525;28;20046;-70
2021/04/13 05:19:50;;;;;;;17.95;10.23;;;;;;;1.76;86.93;101710.38;20830047;28;20053;-70
2021/04/13 05:29:51;;;;;;;20.90;10.82;;;;;;;1.80;84.72;101728.44;20827537;28;20057;-70
2021/04/13 05:39:52;;;;;;;23.63;10.90;;;;;;;1.96;83.48;101734.50;20838954;28;20054;-70
2021/04/13 05:49:53;;;;;;;20.08;10.93;;;;;;;2.10;81.60;101741.44;20857473;28;20041;-70
2021/04/13 05:59:55;;;;;;;21.17;11.45;;;;;;;2.11;81.65;101752.63;20829055;28;20449;-70
2021/04/13 06:09:56;;;;;;;23.67;13.05;;;;;;;2.08;81.14;101765.53;20826234;28;20064;-70
2021/04/13 06:19:57;;;;;;;26.92;13.10;;;;;;;2.21;80.11;101767.28;20825890;28;20116;-70
2021/04/13 06:29:58;;;;;;;30.98;13.82;;;;;;;2.30;79.63;101772.44;20824795;28;20125;-69
2021/04/13 06:39:59;;;;;;;29.17;14.38;;;;;;;2.50;78.82;101786.25;20823883;28;20045;-70
2021/04/13 06:50:22;;;;;;;35.15;15.45;;;;;;;2.59;76.55;101791.41;20822820;28;20072;-70
2021/04/13 07:00:42;;;;;;;34.20;15.77;;;;;;;2.79;76.94;101798.34;20821903;28;20111;-70
2021/04/13 07:10:53;;;;;;;32.60;16.67;;;;;;;2.92;76.23;101797.47;20814801;28;20050;-68
2021/04/13 07:21:04;;;;;;;29.35;16.08;;;;;;;3.34;75.66;101787.06;20753455;28;20539;-68
2021/04/13 07:31:34;;;;;;;32.40;16.52;;;;;;;3.36;74.74;101806.03;20821023;28;20075;-68
2021/04/13 07:41:46;;;;;;;33.55;17.15;;;;;;;3.82;73.45;101804.16;20814787;28;20080;-68
2021/04/13 07:52:16;;;;;;;31.30;17.02;;;;;;;3.88;74.67;101808.44;20820437;28;20099;-68
2021/04/13 08:02:17;;;;;;;31.45;16.52;;;;;;;4.09;71.79;101810.94;20833554;28;20055;-68
2021/04/13 08:12:32;;;;;;;26.70;15.48;;;;;;;4.45;70.32;101807.28;20836492;28;20045;-68
2021/04/13 08:23:24;;;;;;;27.43;15.10;;;;;;;4.78;67.17;101810.47;20835997;28;20052;-68
2021/04/13 08:33:41;;;;;;;25.70;14.20;;;;;;;4.81;66.72;101813.06;20808921;28;20347;-68
2021/04/13 08:44:16;;;;;;;25.75;14.45;;;;;;;5.10;64.65;101803.28;20834253;28;20092;-68
2021/04/13 08:54:20;;;;;;;18.98;11.40;;;;;;;5.65;58.95;101800.97;20833477;28;20053;-69
2021/04/13 09:04:30;;;;;;;20.17;12.05;;;;;;;6.30;57.95;101794.09;20833100;28;20053;-67
2021/04/13 09:14:40;;;;;;;21.73;12.13;;;;;;;6.34;58.86;101795.78;20830567;28;20061;-67
2021/04/13 09:24:44;;;;;;;23.60;11.75;;;;;;;5.92;58.80;101803.28;20831695;28;20115;-68
2021/04/13 09:35:07;;;;;;;19.35;11.70;;;;;;;7.22;53.67;101807.34;20830950;28;20104;-69
2021/04/13 09:45:23;;;;;;;19.63;12.48;;;;;;;7.18;52.32;101790.06;20829981;28;20056;-68
2021/04/13 09:55:43;;;;;;;18.85;11.00;;;;;;;8.08;49.10;101784.78;20829234;28;20045;-69
2021/04/13 10:05:48;;;;;;;21.83;14.60;;;;;;;7.02;53.33;101779.06;20827950;28;20460;-69
2021/04/13 10:16:04;;;;;;;21.63;12.73;;;;;;;7.26;51.43;101772.59;20827572;28;20049;-69
2021/04/13 10:26:45;;;;;;;21.37;12.70;;;;;;;7.42;50.45;101765.31;20825474;28;20057;-69
2021/04/13 10:37:24;;;;;;;20.85;11.27;;;;;;;8.19;48.60;101758.47;20825178;28;20046;-66
2021/04/13 10:48:02;;;;;;;17.58;10.98;;;;;;;7.59;45.87;101743.25;20824959;28;20053;-67
2021/04/13 10:58:41;;;;;;;17.95;10.77;;;;;;;7.11;48.23;101752.88;20824379;28;20045;-67
2021/04/13 11:09:04;;;;;;;17.00;10.95;;;;;;;7.49;45.66;101733.91;20833091;28;20095;-67
2021/04/13 11:19:11;;;;;;;16.45;9.50;;;;;;;7.27;44.86;101737.81;20850733;28;20496;-67
2021/04/13 11:29:43;;;;;;;15.45;7.97;;;;;;;7.52;41.82;101723.41;20822527;28;20049;-67
2021/04/13 11:40:19;;;;;;;13.68;8.25;;;;;;;8.18;43.77;101717.63;20820448;28;20045;-67
2021/04/13 11:50:37;;;;;;;11.70;6.93;;;;;;;8.03;38.54;101715.34;20820941;28;20049;-66
2021/04/13 12:00:38;;;;;;;14.48;7.53;;;;;;;8.63;39.70;101707.03;20819866;28;20686;-67
2021/04/13 12:10:41;;;;;;;12.85;7.13;;;;;;;8.21;40.90;101711.50;20819404;28;20076;-67
2021/04/13 12:20:42;;;;;;;12.45;6.72;;;;;;;8.40;40.16;101708.44;20802083;28;20053;-67
2021/04/13 12:30:43;;;;;;;9.90;5.63;;;;;;;8.15;37.72;101700.31;20818571;28;20057;-67
2021/04/13 12:41:16;;;;;;;8.00;5.38;;;;;;;8.66;36.63;101697.34;20818230;28;20053;-67
2021/04/13 12:51:24;;;;;;;8.65;4.38;;;;;;;8.43;33.66;101704.91;20833471;28;20100;-67
2021/04/13 13:01:36;;;;;;;7.47;4.63;;;;;;;8.69;37.29;101694.66;20832841;28;20109;-67
2021/04/13 13:11:39;;;;;;;8.32;4.75;;;;;;;8.33;36.38;101685.16;20831714;28;20053;-67
2021/04/13 13:21:51;;;;;;;7.68;3.85;;;;;;;9.17;34.07;101676.81;20831832;28;20076;-67
2021/04/13 13:31:52;;;;;;;7.72;3.85;;;;;;;8.53;35.78;101682.91;20830960;28;20057;-68
2021/04/13 13:42:00;;;;;;;8.48;4.68;;;;;;;8.51;37.61;101674.25;20831157;28;20056;-68
2021/04/13 13:52:08;;;;;;;5.90;2.45;;;;;;;8.93;34.02;101660.09;20846693;28;20405;-68
2021/04/13 14:02:22;;;;;;;7.57;2.72;;;;;;;9.16;34.73;101656.81;20858930;28;20049;-68
2021/04/13 14:12:32;;;;;;;5.17;2.00;;;;;;;8.36;35.71;101644.19;20836117;28;20452;-68
2021/04/13 14:22:33;;;;;;;4.78;2.13;;;;;;;8.66;37.44;101629.50;20838952;28;20464;-68
2021/04/13 14:32:36;;;;;;;4.32;2.03;;;;;;;8.72;31.45;101631.09;20862339;28;20501;-68
2021/04/13 14:42:37;;;;;;;4.47;2.22;;;;;;;8.66;34.97;101616.44;20865071;28;20160;-68
2021/04/13 14:52:41;;;;;;;5.47;2.33;;;;;;;9.07;34.56;101599.63;20835828;28;20046;-68
2021/04/13 15:02:42;;;;;;;7.18;2.28;;;;;;;9.02;34.70;101593.69;20813773;28;20057;-68
2021/04/13 15:12:43;;;;;;;5.32;2.08;;;;;;;8.88;33.65;101585.38;20829052;28;20471;-68
2021/04/13 15:22:44;;;;;;;4.68;2.03;;;;;;;8.76;34.20;101585.72;20853517;28;20041;-67
2021/04/13 15:32:46;;;;;;;4.35;1.70;;;;;;;9.05;35.54;101587.50;20859443;28;20048;-68
2021/04/13 15:43:24;;;;;;;6.40;2.00;;;;;;;9.16;35.34;101580.22;20853879;28;20045;-68
2021/04/13 15:53:27;;;;;;;9.07;2.15;;;;;;;8.64;37.24;101580.81;20830178;28;20041;-67
2021/04/13 16:03:28;;;;;;;6.90;1.90;;;;;;;8.40;38.63;101582.34;20831030;28;20045;-68
2021/04/13 16:13:29;;;;;;;8.70;2.20;;;;;;;8.51;38.35;101573.34;20822051;28;20100;-68
2021/04/13 16:23:31;;;;;;;5.10;1.67;;;;;;;8.38;36.71;101577.16;20830549;28;20053;-68
2021/04/13 16:33:33;;;;;;;3.72;1.45;;;;;;;8.41;36.17;101574.50;20830833;28;20049;-67
2021/04/13 16:43:38;;;;;;;6.55;2.03;;;;;;;8.39;39.18;101572.81;20818285;28;20049;-68
2021/04/13 16:53:39;;;;;;;6.70;2.93;;;;;;;8.57;40.04;101570.56;20821957;28;20100;-68
2021/04/13 17:03:49;;;;;;;6.00;2.05;;;;;;;8.29;39.48;101574.75;20828574;28;20045;-67
2021/04/13 17:13:57;;;;;;;5.40;1.63;;;;;;;8.05;39.78;101578.00;20828700;28;20045;-67
2021/04/13 17:24:01;;;;;;;6.65;2.60;;;;;;;7.88;44.84;101587.97;20819251;28;20041;-67
2021/04/13 17:34:04;;;;;;;8.77;2.90;;;;;;;7.56;45.50;101588.75;20809935;28;20107;-67
2021/04/13 17:44:07;;;;;;;7.13;2.47;;;;;;;7.39;46.06;101589.13;20818121;28;20084;-67
2021/04/13 17:54:12;;;;;;;5.82;1.67;;;;;;;7.12;45.50;101602.72;20813149;28;20041;-67
2021/04/13 18:04:33;;;;;;;3.40;1.97;;;;;;;6.91;45.65;101601.41;20816089;28;20041;-69
2021/04/13 18:14:42;;;;;;;5.60;1.90;;;;;;;6.61;46.49;101613.25;20818046;28;20497;-67
2021/04/13 18:24:42;;;;;;;6.07;2.20;;;;;;;6.39;47.50;101622.34;20819515;28;20053;-67
2021/04/13 18:35:07;;;;;;;7.82;2.30;;;;;;;6.05;49.31;101632.44;20818645;28;20115;-67
2021/04/13 18:45:14;;;;;;;7.03;3.58;;;;;;;5.91;50.06;101639.59;20815945;28;20730;-67
2021/04/13 18:55:32;;;;;;;6.85;2.80;;;;;;;5.63;51.90;101654.72;20817981;28;20049;-67
2021/04/13 19:05:35;;;;;;;7.68;2.85;;;;;;;5.31;54.75;101656.84;20817135;28;20053;-67
2021/04/13 19:15:45;;;;;;;6.68;1.85;;;;;;;4.91;58.22;101670.31;20814662;28;20398;-68
2021/04/13 19:25:49;;;;;;;5.10;1.80;;;;;;;4.65;59.47;101680.06;20816632;28;20095;-68
2021/04/13 19:36:09;;;;;;;8.40;3.38;;;;;;;4.48;60.10;101687.13;20816627;28;20049;-68
2021/04/13 19:46:10;;;;;;;4.15;1.60;;;;;;;4.13;61.25;101690.88;20812271;28;20045;-67
2021/04/13 19:56:14;;;;;;;6.53;2.25;;;;;;;3.83;61.66;101678.13;20820564;28;20050;-68
2021/04/13 20:06:16;;;;;;;7.22;2.50;;;;;;;3.64;63.43;101686.88;20804847;28;20073;-68
2021/04/13 20:16:49;;;;;;;5.72;2.35;;;;;;;3.52;61.55;101686.91;20810835;28;20041;-67
2021/04/13 20:26:51;;;;;;;9.02;2.50;;;;;;;3.51;61.96;101687.78;20809102;28;20527;-67
2021/04/13 20:47:39;;;;;;;9.05;4.03;;;;;;;3.66;61.53;101690.28;20805906;28;20045;-68
2021/04/13 20:57:46;;;;;;;6.30;3.00;;;;;;;3.54;62.64;101695.56;20809521;28;20049;-68
2021/04/13 21:08:13;;;;;;;8.75;4.50;;;;;;;3.44;63.48;101698.19;20821903;28;20045;-68
2021/04/13 21:18:17;;;;;;;16.77;6.55;;;;;;;3.30;64.82;101699.94;20828516;28;20096;-68
2021/04/13 21:28:38;;;;;;;14.37;5.27;;;;;;;3.10;66.72;101691.38;20826833;28;20053;-67
2021/04/13 21:38:43;;;;;;;14.23;5.15;;;;;;;2.90;67.14;101688.00;20825690;28;20049;-67
2021/04/13 21:48:56;;;;;;;12.85;4.70;;;;;;;2.71;68.89;101686.31;20825112;28;20045;-67
2021/04/13 21:58:58;;;;;;;10.18;4.20;;;;;;;2.57;69.67;101679.44;20823633;28;20045;-67
2021/04/13 22:09:03;;;;;;;9.45;4.32;;;;;;;2.35;70.91;101677.72;20817216;28;20103;-67
2021/04/13 22:19:09;;;;;;;9.57;3.65;;;;;;;2.25;72.03;101669.97;20816280;28;20041;-67
2021/04/13 22:29:17;;;;;;;6.93;3.65;;;;;;;2.12;72.82;101671.72;20815204;28;20041;-68
2021/04/13 22:39:19;;;;;;;6.55;3.85;;;;;;;1.89;73.49;101670.81;20814493;28;20056;-68
2021/04/13 22:49:20;;;;;;;6.95;3.40;;;;;;;1.71;74.71;101667.34;20813579;28;20041;-68
2021/04/13 22:59:39;;;;;;;6.95;3.38;;;;;;;1.47;76.44;101664.72;20812894;28;20139;-67
2021/04/13 23:09:40;;;;;;;10.80;3.80;;;;;;;1.23;78.80;101664.59;20811774;28;20080;-67
2021/04/13 23:19:43;;;;;;;8.85;3.50;;;;;;;1.18;80.13;101655.97;20813262;28;20056;-67
2021/04/13 23:29:44;;;;;;;7.90;3.83;;;;;;;1.07;79.84;101660.22;20811861;28;20115;-68
2021/04/13 23:39:45;;;;;;;10.32;3.58;;;;;;;0.82;80.75;101652.38;20793602;28;20042;-68
2021/04/13 23:49:45;;;;;;;22.20;9.82;;;;;;;0.65;81.00;101635.09;20810863;28;20466;-69
2021/04/13 23:59:46;;;;;;;12.13;5.65;;;;;;;0.51;82.60;101634.16;20810375;28;20120;-68
